Time;durP1;ratioP1;P1;durP2;ratioP2;P2;SDS_P1;SDS_P2;PMS_P1;PMS_P2;Temp;Humidity;BMP_temperature;BMP_pressure;BME280_temperature;BME280_humidity;BME280_pressure;Samples;Min_cycle;Max_cycle;Signal;HPM_P1;HPM_P2
2022/04/22 00:02:10;;;;;;;8.35;4.90;;;12.10;61.50;;;;;;4895355;29;20056;-80
2022/04/22 00:04:37;;;;;;;8.00;5.28;;;12.00;61.60;;;;;;4893451;29;20053;-80
2022/04/22 00:07:05;;;;;;;7.93;5.05;;;12.00;61.70;;;;;;4892846;29;20084;-80
2022/04/22 00:09:32;;;;;;;9.27;4.97;;;12.00;61.80;;;;;;4893068;29;20044;-80
2022/04/22 00:11:59;;;;;;;10.43;5.38;;;12.00;62.00;;;;;;4878975;29;20048;-80
2022/04/22 00:14:26;;;;;;;8.07;5.32;;;12.00;62.10;;;;;;4896480;29;20061;-80
2022/04/22 00:16:53;;;;;;;10.70;5.85;;;11.90;62.20;;;;;;4892937;29;20053;-81
2022/04/22 00:19:19;;;;;;;7.78;5.55;;;11.90;62.30;;;;;;4892715;29;20091;-80
2022/04/22 00:21:47;;;;;;;9.48;5.78;;;11.90;62.40;;;;;;4893259;29;20044;-80
2022/04/22 00:24:16;;;;;;;8.70;5.45;;;11.90;62.50;;;;;;4893418;29;20139;-80
2022/04/22 00:26:43;;;;;;;6.57;5.05;;;11.90;62.60;;;;;;4895037;29;20057;-80
2022/04/22 00:29:10;;;;;;;10.45;5.38;;;11.90;62.70;;;;;;4894673;29;20093;-80
2022/04/22 00:31:37;;;;;;;8.40;5.45;;;11.90;62.90;;;;;;4892989;29;20087;-80
2022/04/22 00:34:05;;;;;;;9.55;6.05;;;11.90;63.00;;;;;;4893137;29;20045;-80
2022/04/22 00:36:31;;;;;;;9.35;5.45;;;11.80;63.10;;;;;;4892964;29;20115;-80
2022/04/22 00:38:58;;;;;;;9.68;5.72;;;11.80;63.20;;;;;;4880383;29;20044;-80
2022/04/22 00:41:25;;;;;;;9.15;6.15;;;11.80;63.30;;;;;;4897214;29;20052;-80
2022/04/22 00:43:53;;;;;;;7.32;5.93;;;11.80;63.40;;;;;;4886031;29;20504;-80
2022/04/22 00:46:20;;;;;;;11.73;6.28;;;11.70;63.40;;;;;;4886006;29;20057;-80
2022/04/22 00:48:47;;;;;;;8.77;5.97;;;11.70;63.60;;;;;;4886168;29;20053;-80
2022/04/22 00:51:14;;;;;;;10.48;5.82;;;11.70;63.70;;;;;;4883630;29;20049;-80
2022/04/22 00:53:45;;;;;;;10.43;6.28;;;11.70;63.80;;;;;;4881579;29;20053;-80
2022/04/22 00:56:12;;;;;;;9.57;6.47;;;11.70;63.90;;;;;;4882555;29;20577;-80
2022/04/22 00:58:41;;;;;;;11.48;6.07;;;11.70;63.90;;;;;;4885600;29;20515;-80
2022/04/22 01:01:08;;;;;;;11.98;6.20;;;11.70;64.10;;;;;;4885904;29;20055;-80
2022/04/22 01:03:35;;;;;;;10.15;6.20;;;11.60;64.10;;;;;;4885925;29;20044;-80
2022/04/22 01:11:36;;;;;;;10.38;6.80;;;11.60;64.40;;;;;;4893606;29;20048;-80
2022/04/22 01:14:07;;;;;;;11.13;6.30;;;11.60;64.50;;;;;;4895512;29;20133;-80
2022/04/22 01:16:34;;;;;;;11.10;6.90;;;11.50;64.50;;;;;;4888482;29;20422;-80
2022/04/22 01:19:01;;;;;;;9.20;6.32;;;11.50;64.60;;;;;;4887629;29;20055;-80
2022/04/22 01:21:28;;;;;;;9.50;6.38;;;11.60;64.70;;;;;;4888873;29;20048;-80
2022/04/22 01:23:55;;;;;;;11.38;6.75;;;11.60;64.70;;;;;;4884909;29;20041;-80
2022/04/22 01:26:22;;;;;;;7.45;5.97;;;11.50;64.80;;;;;;4886094;29;20056;-79
2022/04/22 01:28:51;;;;;;;10.23;6.10;;;11.50;64.80;;;;;;4889220;29;20101;-80
2022/04/22 01:31:21;;;;;;;8.02;6.10;;;11.50;64.90;;;;;;4889223;29;20507;-80
2022/04/22 01:33:49;;;;;;;13.27;7.00;;;11.50;64.90;;;;;;4889252;29;20064;-80
2022/04/22 01:36:16;;;;;;;10.45;6.82;;;11.50;64.90;;;;;;4886853;29;20052;-80
2022/04/22 01:38:43;;;;;;;11.82;6.15;;;11.50;64.90;;;;;;4885018;29;20491;-80
2022/04/22 01:41:10;;;;;;;12.18;6.32;;;11.50;65.00;;;;;;4887458;29;20053;-80
2022/04/22 01:43:37;;;;;;;8.60;6.50;;;11.50;65.00;;;;;;4889199;29;20060;-80
2022/04/22 01:46:04;;;;;;;9.07;6.07;;;11.50;65.10;;;;;;4888993;29;20048;-80
2022/04/22 01:48:31;;;;;;;10.07;6.43;;;11.50;65.10;;;;;;4888770;29;20466;-80
2022/04/22 01:51:01;;;;;;;12.80;6.13;;;11.50;65.20;;;;;;4884340;29;20056;-79
2022/04/22 01:53:28;;;;;;;8.57;6.78;;;11.50;65.20;;;;;;4896043;29;20045;-79
2022/04/22 01:56:01;;;;;;;10.52;6.85;;;11.50;65.30;;;;;;4887931;29;20053;-80
2022/04/22 01:58:28;;;;;;;10.55;6.60;;;11.60;65.30;;;;;;4888743;29;20056;-79
2022/04/22 02:00:55;;;;;;;9.95;5.95;;;11.60;65.40;;;;;;4888739;29;20057;-80
2022/04/22 02:03:21;;;;;;;10.20;5.95;;;11.60;65.40;;;;;;4887327;29;20474;-79
2022/04/22 02:05:48;;;;;;;8.82;6.40;;;11.60;65.50;;;;;;4884063;29;20057;-79
2022/04/22 02:08:15;;;;;;;12.75;6.70;;;11.60;65.50;;;;;;4886648;29;20049;-79
2022/04/22 02:10:43;;;;;;;10.35;6.13;;;11.70;65.60;;;;;;4888128;29;20097;-79
2022/04/22 02:13:10;;;;;;;12.07;6.47;;;11.70;65.50;;;;;;4888288;29;20053;-80
2022/04/22 02:15:37;;;;;;;11.15;5.90;;;11.70;65.60;;;;;;4888397;29;20513;-80
2022/04/22 02:18:04;;;;;;;9.20;6.38;;;11.70;65.60;;;;;;4884650;29;20051;-81
2022/04/22 02:20:31;;;;;;;11.85;6.80;;;11.70;65.60;;;;;;4883328;29;20109;-81
2022/04/22 02:22:58;;;;;;;8.98;5.93;;;11.80;65.60;;;;;;4899030;29;20471;-81
2022/04/22 02:25:25;;;;;;;10.85;6.63;;;11.80;65.60;;;;;;4891721;29;20471;-80
2022/04/22 02:30:37;;;;;;;10.18;6.10;;;11.80;65.60;;;;;;4886922;29;20100;-80
2022/04/22 02:33:04;;;;;;;11.68;6.00;;;11.80;65.60;;;;;;4884580;29;20537;-80
2022/04/22 02:35:31;;;;;;;11.02;6.15;;;11.90;65.60;;;;;;4884137;29;20049;-80
2022/04/22 02:37:58;;;;;;;9.55;6.40;;;11.90;65.50;;;;;;4898978;29;20052;-80
2022/04/22 02:45:56;;;;;;;10.65;6.40;;;11.90;65.50;;;;;;4888035;29;20052;-79
2022/04/22 02:48:23;;;;;;;14.38;6.20;;;11.90;65.50;;;;;;4886786;29;20506;-79
2022/04/22 02:50:49;;;;;;;8.45;5.95;;;11.90;65.50;;;;;;4883466;29;20060;-79
2022/04/22 02:53:17;;;;;;;9.70;6.43;;;11.90;65.50;;;;;;4885795;29;20049;-79
2022/04/22 02:55:50;;;;;;;9.27;6.30;;;12.00;65.50;;;;;;4886395;29;20478;-79
2022/04/22 02:58:18;;;;;;;11.43;6.18;;;12.00;65.50;;;;;;4887768;29;20053;-80
2022/04/22 03:00:45;;;;;;;13.52;6.80;;;11.90;65.50;;;;;;4887658;29;20453;-80
2022/04/22 03:03:12;;;;;;;13.35;6.93;;;12.00;65.50;;;;;;4884931;29;20048;-80
2022/04/22 03:05:39;;;;;;;10.20;6.10;;;12.00;65.40;;;;;;4883090;29;20463;-80
2022/04/22 03:08:06;;;;;;;10.32;6.28;;;12.00;65.50;;;;;;4886473;29;20045;-80
2022/04/22 03:10:33;;;;;;;9.02;5.97;;;12.10;65.50;;;;;;4887470;29;20116;-80
2022/04/22 03:12:59;;;;;;;12.02;6.20;;;12.10;65.50;;;;;;4886925;29;20090;-80
2022/04/22 03:15:27;;;;;;;9.32;6.55;;;12.10;65.40;;;;;;4885711;29;20045;-79
2022/04/22 03:17:54;;;;;;;9.65;6.15;;;12.10;65.40;;;;;;4882001;29;20533;-80
2022/04/22 03:20:21;;;;;;;10.00;6.75;;;12.10;65.40;;;;;;4883846;29;20073;-79
2022/04/22 03:22:48;;;;;;;8.65;5.88;;;12.10;65.40;;;;;;4886034;29;20128;-80
2022/04/22 03:25:17;;;;;;;11.00;6.75;;;12.10;65.40;;;;;;4886403;29;20049;-79
2022/04/22 03:27:44;;;;;;;12.65;6.35;;;12.10;65.40;;;;;;4886328;29;20055;-79
2022/04/22 03:30:12;;;;;;;10.32;6.90;;;12.20;65.40;;;;;;4883401;29;20513;-79
2022/04/22 03:32:38;;;;;;;12.63;6.35;;;12.10;65.40;;;;;;4882130;29;20096;-79
2022/04/22 03:35:06;;;;;;;12.75;6.32;;;12.20;65.40;;;;;;4885475;29;20053;-79
2022/04/22 03:37:33;;;;;;;12.13;6.47;;;12.20;65.40;;;;;;4885967;29;20097;-79
2022/04/22 03:40:00;;;;;;;12.65;6.60;;;12.20;65.40;;;;;;4886217;29;20451;-80
2022/04/22 03:42:28;;;;;;;11.50;6.60;;;12.20;65.40;;;;;;4884751;29;20045;-81
2022/04/22 03:44:56;;;;;;;13.02;5.90;;;12.20;65.40;;;;;;4881693;29;20065;-80
2022/04/22 03:47:23;;;;;;;10.48;7.13;;;12.20;65.40;;;;;;4883296;29;20052;-80
2022/04/22 03:49:50;;;;;;;11.85;6.88;;;12.20;65.40;;;;;;4886244;29;20056;-80
2022/04/22 03:52:17;;;;;;;10.60;6.90;;;12.20;65.40;;;;;;4885531;29;20519;-80
2022/04/22 03:54:44;;;;;;;10.60;6.63;;;12.20;65.50;;;;;;4886150;29;20071;-80
2022/04/22 03:59:56;;;;;;;8.20;6.10;;;12.20;65.50;;;;;;4881763;29;20103;-79
2022/04/22 04:02:23;;;;;;;12.30;6.97;;;12.20;65.50;;;;;;4882996;29;20117;-80
2022/04/22 04:04:50;;;;;;;15.10;6.72;;;12.20;65.50;;;;;;4885996;29;20053;-80
2022/04/22 04:07:17;;;;;;;11.93;6.07;;;12.20;65.50;;;;;;4885533;29;20084;-80
2022/04/22 04:18:01;;;;;;;12.50;6.57;;;12.30;65.60;;;;;;4882316;29;20104;-80
2022/04/22 04:23:24;;;;;;;13.25;6.63;;;12.20;65.70;;;;;;4803910;29;20145;-79
2022/04/22 04:25:51;;;;;;;9.88;6.78;;;12.20;65.80;;;;;;4805530;29;20055;-80
2022/04/22 04:28:18;;;;;;;10.27;6.22;;;12.30;65.90;;;;;;4805293;29;20050;-79
2022/04/22 04:30:46;;;;;;;10.18;5.80;;;12.30;65.90;;;;;;4808125;29;20187;-79
2022/04/22 04:33:13;;;;;;;9.23;6.25;;;12.30;65.90;;;;;;4805507;29;20051;-79
2022/04/22 04:35:44;;;;;;;13.43;6.95;;;12.20;66.00;;;;;;4817813;29;20475;-81
2022/04/22 04:38:10;;;;;;;11.27;6.75;;;12.30;66.00;;;;;;4807284;29;20050;-81
2022/04/22 04:40:37;;;;;;;10.70;7.00;;;12.20;66.00;;;;;;4813290;29;20050;-80
2022/04/22 04:43:05;;;;;;;10.05;6.63;;;12.30;66.00;;;;;;4814414;29;20100;-80
2022/04/22 04:45:34;;;;;;;10.65;6.60;;;12.20;66.00;;;;;;4805297;29;20449;-80
2022/04/22 04:48:01;;;;;;;11.40;6.97;;;12.20;66.00;;;;;;4804202;29;20534;-80
2022/04/22 04:50:29;;;;;;;12.35;6.97;;;12.20;66.00;;;;;;4817263;29;20477;-80
2022/04/22 04:52:55;;;;;;;11.10;6.45;;;12.20;66.00;;;;;;4805268;29;20058;-81
2022/04/22 04:55:22;;;;;;;9.05;6.32;;;12.20;66.10;;;;;;4808849;29;20152;-81
2022/04/22 04:57:49;;;;;;;10.85;6.50;;;12.20;66.10;;;;;;4808966;29;20100;-81
2022/04/22 05:00:18;;;;;;;13.68;7.07;;;12.20;66.10;;;;;;4862887;29;20088;-81
2022/04/22 05:02:46;;;;;;;12.55;6.35;;;12.20;66.10;;;;;;4885596;29;20063;-80
2022/04/22 05:05:13;;;;;;;9.80;6.47;;;12.20;66.10;;;;;;4898885;29;20056;-81
2022/04/22 05:07:51;;;;;;;9.23;6.65;;;12.20;66.10;;;;;;4891693;29;20093;-81
2022/04/22 05:10:18;;;;;;;12.23;6.72;;;12.20;66.10;;;;;;4889556;29;20104;-81
2022/04/22 05:12:46;;;;;;;10.93;6.78;;;12.20;66.10;;;;;;4889439;29;20521;-81
2022/04/22 05:15:14;;;;;;;10.52;6.68;;;12.20;66.20;;;;;;4887073;29;20052;-80
2022/04/22 05:17:41;;;;;;;12.48;6.55;;;12.20;66.20;;;;;;4885284;29;20073;-80
2022/04/22 05:20:11;;;;;;;11.55;6.78;;;12.20;66.20;;;;;;4887943;29;20060;-80
2022/04/22 05:22:38;;;;;;;10.98;7.10;;;12.20;66.20;;;;;;4889518;29;20056;-81
2022/04/22 05:25:07;;;;;;;12.40;6.28;;;12.20;66.30;;;;;;4889416;29;20076;-80
2022/04/22 05:27:35;;;;;;;9.07;5.90;;;12.20;66.40;;;;;;4889446;29;20124;-80
2022/04/22 05:32:50;;;;;;;13.82;6.60;;;12.20;66.40;;;;;;4898602;29;20052;-81
2022/04/22 05:35:19;;;;;;;10.48;6.97;;;12.20;66.50;;;;;;4887132;29;20129;-81
2022/04/22 05:37:57;;;;;;;9.32;7.10;;;12.20;66.50;;;;;;4889160;29;20052;-79
2022/04/22 05:40:26;;;;;;;9.57;6.68;;;12.20;66.50;;;;;;4887994;29;20117;-81
2022/04/22 05:42:55;;;;;;;12.68;7.45;;;12.20;66.50;;;;;;4889062;29;20052;-80
2022/04/22 05:45:23;;;;;;;13.45;7.65;;;12.20;66.50;;;;;;4887519;29;20098;-80
2022/04/22 05:47:53;;;;;;;13.63;7.05;;;12.20;66.60;;;;;;4884192;29;20200;-81
2022/04/22 05:50:22;;;;;;;10.20;7.30;;;12.20;66.60;;;;;;4886308;29;20567;-81
2022/04/22 05:52:49;;;;;;;12.38;7.95;;;12.20;66.70;;;;;;4888818;29;20049;-81
2022/04/22 05:55:28;;;;;;;16.00;7.88;;;12.20;66.70;;;;;;4888849;29;20109;-80
2022/04/22 05:57:57;;;;;;;11.02;7.22;;;12.20;66.80;;;;;;4889061;29;20056;-80
2022/04/22 06:00:26;;;;;;;14.35;7.28;;;12.20;66.80;;;;;;4887523;29;20505;-80
2022/04/22 06:02:55;;;;;;;13.93;7.70;;;12.20;66.80;;;;;;4884102;29;20131;-80
2022/04/22 06:05:23;;;;;;;11.88;7.60;;;12.20;66.80;;;;;;4885664;29;20052;-80
2022/04/22 06:10:31;;;;;;;10.50;7.32;;;12.20;66.80;;;;;;4888750;29;20105;-80
2022/04/22 06:10:39;;;;;;;10.35;6.95;;;12.20;66.80;;;;;;4888605;29;20057;-80
2022/04/22 06:13:06;;;;;;;10.07;7.60;;;12.20;66.80;;;;;;4888424;29;20065;-80
2022/04/22 06:15:34;;;;;;;16.10;7.90;;;12.20;66.80;;;;;;4887427;29;20108;-80
2022/04/22 06:18:01;;;;;;;12.07;8.70;;;12.30;66.80;;;;;;4884096;29;20108;-80
2022/04/22 06:20:29;;;;;;;13.23;8.35;;;12.20;66.70;;;;;;4895762;29;20056;-80
2022/04/22 06:22:56;;;;;;;11.57;8.38;;;12.30;66.70;;;;;;4888472;29;20057;-80
2022/04/22 06:25:23;;;;;;;17.92;8.68;;;12.30;66.60;;;;;;4888366;29;20052;-80
2022/04/22 06:27:50;;;;;;;12.85;8.43;;;12.30;66.60;;;;;;4888382;29;20052;-80
2022/04/22 06:30:19;;;;;;;13.13;8.80;;;12.40;66.50;;;;;;4886144;29;20585;-80
2022/04/22 06:32:49;;;;;;;13.93;9.00;;;12.40;66.40;;;;;;4883434;29;20049;-80
2022/04/22 06:35:23;;;;;;;11.02;8.55;;;12.40;66.30;;;;;;4886134;29;20049;-80
2022/04/22 06:37:52;;;;;;;13.23;8.15;;;12.40;66.20;;;;;;4888176;29;20053;-80
2022/04/22 06:45:53;;;;;;;13.90;8.93;;;12.40;66.00;;;;;;4887712;29;20052;-80
2022/04/22 06:48:20;;;;;;;15.00;8.73;;;12.40;65.90;;;;;;4886159;29;20053;-80
2022/04/22 06:51:07;;;;;;;13.10;8.60;;;12.50;65.80;;;;;;4884004;29;20083;-80
2022/04/22 06:53:35;;;;;;;15.68;9.55;;;12.40;65.80;;;;;;4898692;29;20459;-80
2022/04/22 06:56:05;;;;;;;12.02;8.57;;;12.40;65.70;;;;;;4887263;29;20049;-80
2022/04/22 06:58:33;;;;;;;17.35;8.68;;;12.50;65.60;;;;;;4893082;29;20459;-80
2022/04/22 07:01:01;;;;;;;12.75;9.23;;;12.50;65.50;;;;;;4893633;29;20049;-80
2022/04/22 07:03:47;;;;;;;13.55;8.77;;;12.50;65.40;;;;;;4888118;29;20044;-80
2022/04/22 07:06:14;;;;;;;12.38;8.75;;;12.50;65.40;;;;;;4911157;29;20573;-80
2022/04/22 07:08:45;;;;;;;14.00;8.82;;;12.50;65.40;;;;;;4882606;29;20097;-80
2022/04/22 07:11:21;;;;;;;13.20;8.75;;;12.50;65.40;;;;;;4883907;29;20464;-80
2022/04/22 07:13:48;;;;;;;14.93;9.00;;;12.50;65.30;;;;;;4886975;29;20064;-80
2022/04/22 07:16:17;;;;;;;13.38;9.10;;;12.50;65.30;;;;;;4891155;29;20064;-80
2022/04/22 07:18:46;;;;;;;13.63;8.57;;;12.50;65.30;;;;;;4896487;29;20055;-80
2022/04/22 07:21:14;;;;;;;13.98;9.00;;;12.60;65.20;;;;;;4883380;29;20056;-80
2022/04/22 07:23:41;;;;;;;15.93;8.88;;;12.60;65.20;;;;;;4882400;29;20101;-80
2022/04/22 07:26:09;;;;;;;17.58;9.93;;;12.60;65.20;;;;;;4885884;29;20574;-80
2022/04/22 07:28:39;;;;;;;14.02;9.23;;;12.60;65.20;;;;;;4887037;29;20116;-80
2022/04/22 07:31:09;;;;;;;14.98;9.45;;;12.60;65.20;;;;;;4886244;29;20069;-80
2022/04/22 07:33:36;;;;;;;12.35;9.52;;;12.70;65.20;;;;;;4886731;29;20449;-80
2022/04/22 07:36:03;;;;;;;16.38;9.38;;;12.70;65.10;;;;;;4882848;29;20048;-80
2022/04/22 07:38:31;;;;;;;14.25;10.15;;;12.70;65.10;;;;;;4882557;29;20476;-80
2022/04/22 07:40:58;;;;;;;12.40;9.82;;;12.70;65.10;;;;;;4897320;29;20498;-80
2022/04/22 07:48:58;;;;;;;13.93;8.80;;;12.80;65.10;;;;;;4886653;29;20606;-80
2022/04/22 07:51:25;;;;;;;14.27;9.20;;;12.80;65.00;;;;;;4885587;29;20048;-79
2022/04/22 07:53:56;;;;;;;12.50;9.25;;;12.90;65.00;;;;;;4896733;29;20068;-79
2022/04/22 07:56:24;;;;;;;14.07;9.07;;;12.90;65.10;;;;;;4883636;29;20435;-79
2022/04/22 07:58:51;;;;;;;13.25;9.98;;;12.90;65.00;;;;;;4884925;29;20049;-80
2022/04/22 08:01:19;;;;;;;14.15;9.35;;;12.90;65.00;;;;;;4885965;29;20057;-81
2022/04/22 08:03:46;;;;;;;12.00;9.43;;;12.90;64.90;;;;;;4886354;29;20056;-81
2022/04/22 08:06:13;;;;;;;13.30;9.43;;;13.00;64.90;;;;;;4883586;29;20478;-81
2022/04/22 08:08:40;;;;;;;11.88;9.23;;;13.00;64.80;;;;;;4881417;29;20471;-81
2022/04/22 08:11:07;;;;;;;13.27;9.65;;;13.10;64.80;;;;;;4885239;29;20053;-80
2022/04/22 08:13:35;;;;;;;11.43;9.07;;;13.10;64.70;;;;;;4885591;29;20570;-80
2022/04/22 08:16:03;;;;;;;11.35;9.00;;;13.20;64.70;;;;;;4885742;29;20097;-80
2022/04/22 08:18:30;;;;;;;16.67;9.82;;;13.20;64.60;;;;;;4885681;29;20192;-81
2022/04/22 08:20:57;;;;;;;10.65;8.50;;;13.20;64.50;;;;;;4881733;29;20051;-80
2022/04/22 08:23:24;;;;;;;11.82;8.73;;;13.30;64.40;;;;;;4882652;29;20053;-80
2022/04/22 08:25:51;;;;;;;11.48;8.18;;;13.30;64.40;;;;;;4885852;29;20053;-80
2022/04/22 08:28:18;;;;;;;13.98;8.27;;;13.40;64.30;;;;;;4885569;29;20423;-80
2022/04/22 08:30:45;;;;;;;14.05;8.15;;;13.40;64.20;;;;;;4885752;29;20525;-80
2022/04/22 08:33:12;;;;;;;10.32;8.00;;;13.40;64.20;;;;;;4882995;29;20425;-80
2022/04/22 08:35:39;;;;;;;12.50;8.00;;;13.50;64.10;;;;;;4881477;29;20053;-80
2022/04/22 08:38:09;;;;;;;13.20;8.43;;;13.50;63.90;;;;;;4903050;29;20056;-80
2022/04/22 08:40:37;;;;;;;11.98;7.82;;;13.60;63.90;;;;;;4891024;29;20053;-80
2022/04/22 08:43:06;;;;;;;13.48;8.05;;;13.60;63.80;;;;;;4885809;29;20052;-80
2022/04/22 08:45:33;;;;;;;12.25;9.43;;;13.70;63.70;;;;;;4885873;29;20583;-80
2022/04/22 08:50:53;;;;;;;11.07;7.95;;;13.80;63.40;;;;;;4895087;29;20108;-80
2022/04/22 08:53:23;;;;;;;8.98;7.47;;;13.90;63.30;;;;;;4883599;29;20056;-80
2022/04/22 08:55:58;;;;;;;13.02;8.38;;;13.90;63.20;;;;;;4885571;29;20117;-80
2022/04/22 08:58:29;;;;;;;10.43;7.88;;;13.90;63.10;;;;;;4885968;29;20510;-79
2022/04/22 09:01:00;;;;;;;10.52;8.20;;;14.00;63.00;;;;;;4885937;29;20045;-79
2022/04/22 09:03:28;;;;;;;10.52;8.25;;;14.00;62.90;;;;;;4885130;29;20049;-80
2022/04/22 09:05:56;;;;;;;11.20;7.75;;;14.10;62.90;;;;;;4891878;29;20056;-79
2022/04/22 09:08:26;;;;;;;15.80;8.48;;;14.20;62.80;;;;;;4882107;29;20093;-80
2022/04/22 09:10:54;;;;;;;13.02;7.95;;;14.20;62.70;;;;;;4894052;29;20052;-80
2022/04/22 09:13:26;;;;;;;13.50;8.38;;;14.30;62.60;;;;;;4893326;29;20194;-80
2022/04/22 09:15:54;;;;;;;11.55;7.85;;;14.30;62.50;;;;;;4894038;29;20049;-80
2022/04/22 09:18:38;;;;;;;10.52;7.72;;;14.40;62.40;;;;;;4892567;29;20510;-80
2022/04/22 09:21:06;;;;;;;9.63;7.18;;;14.40;62.30;;;;;;4892678;29;20502;-79
2022/04/22 09:23:35;;;;;;;12.40;7.70;;;14.50;62.20;;;;;;4895522;29;20088;-79
2022/04/22 09:26:04;;;;;;;14.10;7.57;;;14.60;62.20;;;;;;4892809;29;20049;-79
2022/04/22 09:28:32;;;;;;;13.13;7.85;;;14.70;62.10;;;;;;4892522;29;20063;-80
2022/04/22 09:31:03;;;;;;;10.65;7.15;;;14.80;62.10;;;;;;4892116;29;20125;-79
2022/04/22 09:33:57;;;;;;;11.25;7.15;;;14.80;62.00;;;;;;4892113;29;20052;-79
2022/04/22 09:45:06;;;;;;;13.23;7.10;;;15.20;61.60;;;;;;4881514;29;20045;-79
2022/04/22 09:47:35;;;;;;;14.63;7.75;;;15.30;61.50;;;;;;4896175;29;20136;-79
2022/04/22 09:50:10;;;;;;;10.23;8.15;;;15.40;61.40;;;;;;4896461;29;20108;-79
2022/04/22 09:52:43;;;;;;;10.52;7.25;;;15.40;61.30;;;;;;4896006;29;20083;-80
2022/04/22 09:55:16;;;;;;;11.20;7.07;;;15.40;61.20;;;;;;4897014;29;20056;-79
2022/04/22 09:57:54;;;;;;;13.13;7.23;;;15.50;61.10;;;;;;4895932;29;20505;-80
2022/04/22 10:00:23;;;;;;;11.65;8.50;;;15.70;61.00;;;;;;4895903;29;20105;-79
2022/04/22 10:02:51;;;;;;;14.70;7.20;;;15.70;60.90;;;;;;4897494;29;20112;-79
2022/04/22 10:05:22;;;;;;;12.95;7.38;;;15.80;60.70;;;;;;4898520;29;20079;-79
2022/04/22 10:07:56;;;;;;;15.60;8.73;;;15.90;60.50;;;;;;4895609;29;20116;-80
2022/04/22 10:10:42;;;;;;;12.05;8.32;;;15.90;60.30;;;;;;4895060;29;20466;-80
2022/04/22 10:13:15;;;;;;;15.15;7.78;;;16.00;60.10;;;;;;4895198;29;20053;-80
2022/04/22 10:15:45;;;;;;;13.20;7.90;;;16.10;59.90;;;;;;4895501;29;20045;-79
2022/04/22 10:18:16;;;;;;;16.65;8.90;;;16.10;59.80;;;;;;4895623;29;20045;-80
2022/04/22 10:20:44;;;;;;;10.35;6.97;;;16.20;59.60;;;;;;4897949;29;20067;-79
2022/04/22 10:23:11;;;;;;;14.85;8.20;;;16.20;59.50;;;;;;4896688;29;20505;-79
2022/04/22 10:25:39;;;;;;;14.02;8.80;;;16.30;59.40;;;;;;4895220;29;20056;-80
2022/04/22 10:28:08;;;;;;;11.95;7.68;;;16.30;59.30;;;;;;4895375;29;20123;-79
2022/04/22 10:30:37;;;;;;;9.35;6.63;;;16.40;59.10;;;;;;4895037;29;20052;-80
2022/04/22 10:33:05;;;;;;;12.50;7.53;;;16.40;59.00;;;;;;4895317;29;20179;-79
2022/04/22 10:35:39;;;;;;;13.70;9.75;;;16.40;58.90;;;;;;4899020;29;20052;-80
2022/04/22 10:38:28;;;;;;;15.82;7.70;;;16.50;58.70;;;;;;4898003;29;20056;-80
2022/04/22 10:40:55;;;;;;;11.20;7.03;;;16.50;58.50;;;;;;4895191;29;20045;-80
2022/04/22 10:43:26;;;;;;;10.85;7.25;;;16.60;58.40;;;;;;4895115;29;20108;-80
2022/04/22 10:48:41;;;;;;;9.88;7.40;;;16.70;58.20;;;;;;4896991;29;20137;-80
2022/04/22 10:51:11;;;;;;;9.90;7.57;;;16.70;58.10;;;;;;4893681;29;20082;-79
2022/04/22 10:53:49;;;;;;;15.45;8.75;;;16.80;58.00;;;;;;4896470;29;20052;-78
2022/04/22 10:56:29;;;;;;;11.77;7.03;;;16.80;57.80;;;;;;4896667;29;20060;-81
2022/04/22 10:59:21;;;;;;;12.02;7.40;;;16.80;57.70;;;;;;4894634;29;20059;-81
2022/04/22 11:01:48;;;;;;;11.82;6.85;;;16.80;57.60;;;;;;4894449;29;20111;-81
2022/04/22 11:04:19;;;;;;;12.15;6.93;;;16.90;57.50;;;;;;4894105;29;20053;-79
2022/04/22 11:06:46;;;;;;;8.50;5.90;;;16.90;57.50;;;;;;4885130;29;20048;-81
2022/04/22 11:09:28;;;;;;;11.10;6.75;;;16.90;57.40;;;;;;4904139;29;20064;-80
2022/04/22 11:11:57;;;;;;;8.57;6.22;;;16.90;57.30;;;;;;4895374;29;20113;-80
2022/04/22 11:14:32;;;;;;;13.55;8.00;;;17.00;57.30;;;;;;4897597;29;20060;-80
2022/04/22 11:17:32;;;;;;;11.88;6.28;;;17.00;57.20;;;;;;4896199;29;20053;-80
2022/04/22 11:20:01;;;;;;;13.63;7.80;;;17.10;57.00;;;;;;4895928;29;20044;-80
2022/04/22 11:22:56;;;;;;;11.88;6.70;;;17.10;57.00;;;;;;4893639;29;20116;-80
2022/04/22 11:25:29;;;;;;;10.88;6.22;;;17.10;56.80;;;;;;4895401;29;20574;-80
2022/04/22 11:27:56;;;;;;;10.10;6.82;;;17.20;56.70;;;;;;4895661;29;20056;-79
2022/04/22 11:30:26;;;;;;;10.38;6.55;;;17.30;56.60;;;;;;4894018;29;20056;-79
2022/04/22 11:33:03;;;;;;;10.18;6.53;;;17.30;56.50;;;;;;4895486;29;20620;-79
2022/04/22 11:35:34;;;;;;;11.73;6.70;;;17.30;56.40;;;;;;4893827;29;20056;-80
2022/04/22 11:38:06;;;;;;;9.73;5.80;;;17.40;56.20;;;;;;4895143;29;20049;-79
2022/04/22 11:40:38;;;;;;;10.88;5.57;;;17.40;56.20;;;;;;4896761;29;20112;-79
2022/04/22 11:43:09;;;;;;;10.05;5.80;;;17.40;56.10;;;;;;4895524;29;20048;-80
2022/04/22 11:45:45;;;;;;;9.95;5.47;;;17.40;56.10;;;;;;4893854;29;20120;-79
2022/04/22 11:48:19;;;;;;;8.50;5.80;;;17.50;56.00;;;;;;4893974;29;20056;-79
2022/04/22 11:50:46;;;;;;;;;;;17.50;55.90;;;;;;4895127;29;20077;-79
2022/04/22 11:53:18;;;;;;;9.55;6.40;;;17.50;55.70;;;;;;4895390;29;19927;-79
2022/04/22 11:55:47;;;;;;;9.70;6.30;;;17.50;55.60;;;;;;4893985;29;20493;-79
2022/04/22 11:58:24;;;;;;;13.05;6.38;;;17.50;55.50;;;;;;4893421;29;20100;-80
2022/04/22 12:06:30;;;;;;;9.45;6.72;;;17.60;55.00;;;;;;4893275;29;20080;-79
2022/04/22 12:09:00;;;;;;;8.68;5.28;;;17.60;55.00;;;;;;4894004;29;20119;-79
2022/04/22 12:11:28;;;;;;;11.30;6.57;;;17.50;54.90;;;;;;4897126;29;20115;-80
2022/04/22 12:13:55;;;;;;;12.85;7.40;;;17.50;54.90;;;;;;4894758;29;20052;-80
2022/04/22 12:16:26;;;;;;;8.88;5.78;;;17.50;54.90;;;;;;4893059;29;20056;-80
2022/04/22 12:18:54;;;;;;;9.57;5.68;;;17.50;54.90;;;;;;4893034;29;20052;-80
2022/04/22 12:21:23;;;;;;;10.93;6.07;;;17.40;54.90;;;;;;4893399;29;20053;-79
2022/04/22 12:23:51;;;;;;;7.53;5.45;;;17.40;55.00;;;;;;4894909;29;20064;-80
2022/04/22 12:26:23;;;;;;;9.02;5.95;;;17.40;54.90;;;;;;4895742;29;20451;-79
2022/04/22 12:28:58;;;;;;;10.35;5.82;;;17.40;54.90;;;;;;4892973;29;20119;-80
2022/04/22 12:31:27;;;;;;;9.07;5.18;;;17.40;54.80;;;;;;4894529;29;20048;-80
2022/04/22 12:34:03;;;;;;;10.68;6.30;;;17.40;54.80;;;;;;4892869;29;20103;-79
2022/04/22 12:36:38;;;;;;;16.02;7.07;;;17.40;54.80;;;;;;4893164;29;20044;-79
2022/04/22 12:39:06;;;;;;;9.60;5.25;;;17.30;54.80;;;;;;4878703;29;20048;-79
2022/04/22 12:41:47;;;;;;;10.27;5.45;;;17.30;54.70;;;;;;4896604;29;20403;-79
2022/04/22 12:44:15;;;;;;;9.52;5.32;;;17.20;54.60;;;;;;4894997;29;20049;-79
2022/04/22 12:52:47;;;;;;;12.68;6.53;;;17.20;54.60;;;;;;4893256;29;20108;-79
2022/04/22 12:55:17;;;;;;;11.18;6.43;;;17.10;54.50;;;;;;4892965;29;20112;-79
2022/04/22 12:57:44;;;;;;;12.68;6.60;;;17.10;54.40;;;;;;4893014;29;20502;-79
2022/04/22 13:00:15;;;;;;;9.88;5.78;;;17.10;54.20;;;;;;4892906;29;20052;-79
2022/04/22 13:03:03;;;;;;;8.63;5.90;;;17.00;54.00;;;;;;4878146;29;20071;-80
2022/04/22 13:05:31;;;;;;;9.18;5.53;;;17.10;54.00;;;;;;4892966;29;20506;-79
2022/04/22 13:08:09;;;;;;;15.55;7.30;;;17.00;54.00;;;;;;4893511;29;20059;-79
2022/04/22 13:10:36;;;;;;;9.23;6.75;;;17.00;53.90;;;;;;4892806;29;20052;-79
2022/04/22 13:13:10;;;;;;;10.85;5.80;;;17.00;53.70;;;;;;4893997;29;20183;-79
2022/04/22 13:15:37;;;;;;;10.13;4.82;;;16.90;53.60;;;;;;4895629;29;20052;-79
2022/04/22 13:18:04;;;;;;;8.50;5.20;;;16.90;53.60;;;;;;4896576;29;20104;-79
2022/04/22 13:20:30;;;;;;;8.45;5.70;;;16.90;53.60;;;;;;4900715;29;20561;-79
2022/04/22 13:22:57;;;;;;;12.68;5.90;;;16.90;53.70;;;;;;4896926;29;20060;-80
2022/04/22 13:25:24;;;;;;;11.02;5.85;;;16.90;53.70;;;;;;4896401;29;20052;-79
2022/04/22 13:27:51;;;;;;;10.88;7.05;;;16.90;53.60;;;;;;4896140;29;20529;-80
2022/04/22 13:30:18;;;;;;;8.82;5.40;;;16.80;53.50;;;;;;4896743;29;20057;-80
2022/04/22 13:32:45;;;;;;;11.60;7.10;;;16.90;53.30;;;;;;4898625;29;20079;-79
2022/04/22 13:35:13;;;;;;;9.68;5.38;;;16.90;53.30;;;;;;4897816;29;20501;-79
2022/04/22 13:37:40;;;;;;;11.32;7.00;;;16.80;53.30;;;;;;4896198;29;20059;-79
2022/04/22 13:40:08;;;;;;;10.75;6.70;;;16.80;53.30;;;;;;4896168;29;20045;-79
2022/04/22 13:42:35;;;;;;;10.40;6.45;;;16.80;53.20;;;;;;4896228;29;20044;-79
2022/04/22 13:53:19;;;;;;;11.10;7.53;;;16.70;53.10;;;;;;4898661;29;20048;-80
2022/04/22 13:55:46;;;;;;;9.98;5.47;;;16.70;53.20;;;;;;4896162;29;20052;-80
2022/04/22 13:58:13;;;;;;;8.63;5.00;;;16.70;53.20;;;;;;4896195;29;20131;-80
2022/04/22 14:00:43;;;;;;;13.23;7.28;;;16.60;53.30;;;;;;4894948;29;20056;-79
2022/04/22 14:03:10;;;;;;;9.93;7.28;;;16.60;53.30;;;;;;4908728;29;20059;-79
2022/04/22 14:05:38;;;;;;;12.32;7.65;;;16.70;53.30;;;;;;4898059;29;20422;-80
2022/04/22 14:08:05;;;;;;;8.75;6.70;;;16.70;53.20;;;;;;4898773;29;20105;-79